sensor_id;sensor_type;location;lat;lon;timestamp;P1;durP1;ratioP1;P2;durP2;ratioP2
52272;SDS011;38227;50.942;4.016;2022-09-12T00:02:17;11.45;;;9.27;;
52272;SDS011;38227;50.942;4.016;2022-09-12T00:04:56;11.73;;;9.43;;
52272;SDS011;38227;50.942;4.016;2022-09-12T00:07:28;12.63;;;9.32;;
52272;SDS011;38227;50.942;4.016;2022-09-12T00:10:00;14.80;;;10.50;;
52272;SDS011;38227;50.942;4.016;2022-09-12T00:12:32;12.55;;;11.23;;
52272;SDS011;38227;50.942;4.016;2022-09-12T00:15:02;13.90;;;10.27;;
52272;SDS011;38227;50.942;4.016;2022-09-12T00:17:37;14.13;;;12.25;;
52272;SDS011;38227;50.942;4.016;2022-09-12T00:20:06;14.57;;;11.65;;
52272;SDS011;38227;50.942;4.016;2022-09-12T00:22:36;16.58;;;11.88;;
52272;SDS011;38227;50.942;4.016;2022-09-12T00:25:05;15.20;;;12.10;;
52272;SDS011;38227;50.942;4.016;2022-09-12T00:27:55;14.02;;;11.75;;
52272;SDS011;38227;50.942;4.016;2022-09-12T00:30:24;13.55;;;11.38;;
52272;SDS011;38227;50.942;4.016;2022-09-12T00:32:55;14.80;;;10.45;;
52272;SDS011;38227;50.942;4.016;2022-09-12T00:35:24;13.27;;;10.82;;
52272;SDS011;38227;50.942;4.016;2022-09-12T00:37:55;13.00;;;10.45;;
52272;SDS011;38227;50.942;4.016;2022-09-12T00:40:26;12.90;;;10.88;;
52272;SDS011;38227;50.942;4.016;2022-09-12T00:42:57;13.62;;;11.27;;
52272;SDS011;38227;50.942;4.016;2022-09-12T00:45:28;15.32;;;11.80;;
52272;SDS011;38227;50.942;4.016;2022-09-12T00:47:59;16.45;;;12.23;;
52272;SDS011;38227;50.942;4.016;2022-09-12T00:50:28;14.82;;;11.95;;
52272;SDS011;38227;50.942;4.016;2022-09-12T00:53:03;17.25;;;11.90;;
52272;SDS011;38227;50.942;4.016;2022-09-12T00:55:35;15.63;;;12.13;;
52272;SDS011;38227;50.942;4.016;2022-09-12T00:58:10;16.15;;;11.63;;
52272;SDS011;38227;50.942;4.016;2022-09-12T01:00:46;19.12;;;11.43;;
52272;SDS011;38227;50.942;4.016;2022-09-12T01:03:19;16.80;;;12.25;;
52272;SDS011;38227;50.942;4.016;2022-09-12T01:05:52;15.27;;;11.95;;
52272;SDS011;38227;50.942;4.016;2022-09-12T01:08:28;15.90;;;11.88;;
52272;SDS011;38227;50.942;4.016;2022-09-12T01:11:01;17.73;;;12.43;;
52272;SDS011;38227;50.942;4.016;2022-09-12T01:13:33;16.20;;;11.55;;
52272;SDS011;38227;50.942;4.016;2022-09-12T01:16:03;19.02;;;12.80;;
52272;SDS011;38227;50.942;4.016;2022-09-12T01:19:17;15.02;;;12.60;;
52272;SDS011;38227;50.942;4.016;2022-09-12T01:25:33;15.45;;;12.35;;
52272;SDS011;38227;50.942;4.016;2022-09-12T01:31:33;17.25;;;12.00;;
52272;SDS011;38227;50.942;4.016;2022-09-12T01:34:21;14.75;;;11.98;;
52272;SDS011;38227;50.942;4.016;2022-09-12T01:43:17;14.98;;;12.15;;
52272;SDS011;38227;50.942;4.016;2022-09-12T01:49:04;17.17;;;13.27;;
52272;SDS011;38227;50.942;4.016;2022-09-12T01:57:47;16.27;;;12.77;;
52272;SDS011;38227;50.942;4.016;2022-09-12T02:00:18;17.25;;;12.88;;
52272;SDS011;38227;50.942;4.016;2022-09-12T02:03:00;14.35;;;12.85;;
52272;SDS011;38227;50.942;4.016;2022-09-12T02:05:40;20.08;;;13.32;;
52272;SDS011;38227;50.942;4.016;2022-09-12T02:08:21;21.02;;;13.45;;
52272;SDS011;38227;50.942;4.016;2022-09-12T02:10:57;15.65;;;12.95;;
52272;SDS011;38227;50.942;4.016;2022-09-12T02:16:32;17.65;;;13.60;;
52272;SDS011;38227;50.942;4.016;2022-09-12T02:19:16;21.35;;;13.35;;
52272;SDS011;38227;50.942;4.016;2022-09-12T02:21:57;20.85;;;14.27;;
52272;SDS011;38227;50.942;4.016;2022-09-12T02:24:32;20.98;;;15.65;;
52272;SDS011;38227;50.942;4.016;2022-09-12T02:27:10;22.67;;;15.90;;
52272;SDS011;38227;50.942;4.016;2022-09-12T02:29:58;18.58;;;14.55;;
52272;SDS011;38227;50.942;4.016;2022-09-12T02:32:36;18.50;;;14.38;;
52272;SDS011;38227;50.942;4.016;2022-09-12T02:35:24;17.50;;;13.85;;
52272;SDS011;38227;50.942;4.016;2022-09-12T02:38:29;18.30;;;13.95;;
52272;SDS011;38227;50.942;4.016;2022-09-12T02:41:14;17.95;;;14.50;;
52272;SDS011;38227;50.942;4.016;2022-09-12T02:43:47;20.85;;;14.85;;
52272;SDS011;38227;50.942;4.016;2022-09-12T02:47:00;22.80;;;15.73;;
52272;SDS011;38227;50.942;4.016;2022-09-12T02:49:11;18.40;;;14.15;;
52272;SDS011;38227;50.942;4.016;2022-09-12T02:51:45;20.45;;;14.85;;
52272;SDS011;38227;50.942;4.016;2022-09-12T02:54:14;22.80;;;14.80;;
52272;SDS011;38227;50.942;4.016;2022-09-12T02:56:46;17.20;;;14.80;;
52272;SDS011;38227;50.942;4.016;2022-09-12T02:59:18;19.95;;;15.18;;
52272;SDS011;38227;50.942;4.016;2022-09-12T03:02:08;20.05;;;13.65;;
52272;SDS011;38227;50.942;4.016;2022-09-12T03:05:19;17.83;;;13.98;;
52272;SDS011;38227;50.942;4.016;2022-09-12T03:17:25;19.90;;;15.57;;
52272;SDS011;38227;50.942;4.016;2022-09-12T03:26:49;22.62;;;15.32;;
52272;SDS011;38227;50.942;4.016;2022-09-12T03:29:41;18.27;;;14.50;;
52272;SDS011;38227;50.942;4.016;2022-09-12T03:32:12;21.50;;;14.98;;
52272;SDS011;38227;50.942;4.016;2022-09-12T03:34:50;21.33;;;15.13;;
52272;SDS011;38227;50.942;4.016;2022-09-12T03:37:27;20.20;;;16.20;;
52272;SDS011;38227;50.942;4.016;2022-09-12T03:40:04;19.92;;;16.17;;
52272;SDS011;38227;50.942;4.016;2022-09-12T03:42:40;22.00;;;16.53;;
52272;SDS011;38227;50.942;4.016;2022-09-12T03:45:18;21.70;;;15.32;;
52272;SDS011;38227;50.942;4.016;2022-09-12T03:47:57;20.92;;;16.55;;
52272;SDS011;38227;50.942;4.016;2022-09-12T03:50:36;19.92;;;14.60;;
52272;SDS011;38227;50.942;4.016;2022-09-12T03:53:07;26.42;;;15.55;;
52272;SDS011;38227;50.942;4.016;2022-09-12T03:55:38;20.67;;;14.95;;
52272;SDS011;38227;50.942;4.016;2022-09-12T03:58:10;21.02;;;16.77;;
52272;SDS011;38227;50.942;4.016;2022-09-12T04:00:40;22.87;;;18.08;;
52272;SDS011;38227;50.942;4.016;2022-09-12T04:03:10;23.90;;;19.08;;
52272;SDS011;38227;50.942;4.016;2022-09-12T04:05:41;28.90;;;18.50;;
52272;SDS011;38227;50.942;4.016;2022-09-12T04:08:13;23.48;;;18.45;;
52272;SDS011;38227;50.942;4.016;2022-09-12T04:10:44;26.42;;;18.73;;
52272;SDS011;38227;50.942;4.016;2022-09-12T04:13:14;24.90;;;18.87;;
52272;SDS011;38227;50.942;4.016;2022-09-12T04:15:54;25.05;;;19.60;;
52272;SDS011;38227;50.942;4.016;2022-09-12T04:18:23;29.80;;;22.73;;
52272;SDS011;38227;50.942;4.016;2022-09-12T04:20:55;29.52;;;21.60;;
52272;SDS011;38227;50.942;4.016;2022-09-12T04:23:23;25.17;;;19.90;;
52272;SDS011;38227;50.942;4.016;2022-09-12T04:25:59;27.45;;;19.90;;
52272;SDS011;38227;50.942;4.016;2022-09-12T04:28:30;27.62;;;20.40;;
52272;SDS011;38227;50.942;4.016;2022-09-12T04:31:03;28.90;;;21.33;;
52272;SDS011;38227;50.942;4.016;2022-09-12T04:33:35;27.25;;;21.37;;
52272;SDS011;38227;50.942;4.016;2022-09-12T04:36:04;27.92;;;21.10;;
52272;SDS011;38227;50.942;4.016;2022-09-12T04:38:33;30.98;;;22.37;;
52272;SDS011;38227;50.942;4.016;2022-09-12T04:44:01;33.15;;;23.27;;
52272;SDS011;38227;50.942;4.016;2022-09-12T04:46:36;33.08;;;23.42;;
52272;SDS011;38227;50.942;4.016;2022-09-12T04:49:08;38.58;;;23.92;;
52272;SDS011;38227;50.942;4.016;2022-09-12T04:51:40;30.75;;;23.95;;
52272;SDS011;38227;50.942;4.016;2022-09-12T04:54:11;30.75;;;23.45;;
52272;SDS011;38227;50.942;4.016;2022-09-12T04:56:43;33.45;;;24.75;;
52272;SDS011;38227;50.942;4.016;2022-09-12T04:59:16;34.72;;;25.50;;
52272;SDS011;38227;50.942;4.016;2022-09-12T05:01:55;34.65;;;23.20;;
52272;SDS011;38227;50.942;4.016;2022-09-12T05:04:23;30.37;;;21.40;;
52272;SDS011;38227;50.942;4.016;2022-09-12T05:06:53;25.55;;;18.52;;
52272;SDS011;38227;50.942;4.016;2022-09-12T05:09:21;27.87;;;17.55;;
52272;SDS011;38227;50.942;4.016;2022-09-12T05:11:52;19.90;;;16.45;;
52272;SDS011;38227;50.942;4.016;2022-09-12T05:14:23;22.98;;;16.10;;
52272;SDS011;38227;50.942;4.016;2022-09-12T05:16:52;21.67;;;15.90;;
52272;SDS011;38227;50.942;4.016;2022-09-12T05:19:23;24.08;;;17.33;;
52272;SDS011;38227;50.942;4.016;2022-09-12T05:21:52;22.08;;;16.50;;
52272;SDS011;38227;50.942;4.016;2022-09-12T05:24:21;20.73;;;17.02;;
52272;SDS011;38227;50.942;4.016;2022-09-12T05:27:03;24.55;;;16.37;;
52272;SDS011;38227;50.942;4.016;2022-09-12T05:29:31;25.37;;;17.98;;
52272;SDS011;38227;50.942;4.016;2022-09-12T05:32:00;28.75;;;21.25;;
52272;SDS011;38227;50.942;4.016;2022-09-12T05:34:29;31.62;;;21.67;;
52272;SDS011;38227;50.942;4.016;2022-09-12T05:37:02;30.15;;;21.48;;
52272;SDS011;38227;50.942;4.016;2022-09-12T05:39:32;27.48;;;20.35;;
52272;SDS011;38227;50.942;4.016;2022-09-12T05:42:03;30.30;;;20.75;;
52272;SDS011;38227;50.942;4.016;2022-09-12T05:44:34;30.33;;;21.77;;
52272;SDS011;38227;50.942;4.016;2022-09-12T05:47:05;31.08;;;21.87;;
52272;SDS011;38227;50.942;4.016;2022-09-12T05:49:34;28.30;;;21.25;;
52272;SDS011;38227;50.942;4.016;2022-09-12T05:52:07;30.33;;;22.60;;
52272;SDS011;38227;50.942;4.016;2022-09-12T05:54:38;29.33;;;21.27;;
52272;SDS011;38227;50.942;4.016;2022-09-12T05:57:07;30.73;;;21.08;;
52272;SDS011;38227;50.942;4.016;2022-09-12T05:59:36;34.00;;;20.77;;
52272;SDS011;38227;50.942;4.016;2022-09-12T06:02:07;31.80;;;20.92;;
52272;SDS011;38227;50.942;4.016;2022-09-12T06:04:38;30.88;;;21.12;;
52272;SDS011;38227;50.942;4.016;2022-09-12T06:07:06;30.92;;;20.58;;
52272;SDS011;38227;50.942;4.016;2022-09-12T06:09:35;30.95;;;20.67;;
52272;SDS011;38227;50.942;4.016;2022-09-12T06:12:07;34.30;;;20.65;;
52272;SDS011;38227;50.942;4.016;2022-09-12T06:14:35;29.48;;;20.23;;
52272;SDS011;38227;50.942;4.016;2022-09-12T06:17:03;37.92;;;21.48;;
52272;SDS011;38227;50.942;4.016;2022-09-12T06:19:31;30.27;;;20.40;;
52272;SDS011;38227;50.942;4.016;2022-09-12T06:22:00;36.13;;;21.05;;
52272;SDS011;38227;50.942;4.016;2022-09-12T06:24:29;28.17;;;19.92;;
52272;SDS011;38227;50.942;4.016;2022-09-12T06:26:57;30.55;;;20.42;;
52272;SDS011;38227;50.942;4.016;2022-09-12T06:29:26;31.65;;;21.55;;
52272;SDS011;38227;50.942;4.016;2022-09-12T06:31:56;33.97;;;20.23;;
52272;SDS011;38227;50.942;4.016;2022-09-12T06:34:25;37.38;;;23.45;;
52272;SDS011;38227;50.942;4.016;2022-09-12T06:36:52;31.20;;;19.52;;
52272;SDS011;38227;50.942;4.016;2022-09-12T06:39:21;38.25;;;18.37;;
52272;SDS011;38227;50.942;4.016;2022-09-12T06:41:51;42.47;;;16.92;;
52272;SDS011;38227;50.942;4.016;2022-09-12T06:44:22;27.37;;;13.60;;
52272;SDS011;38227;50.942;4.016;2022-09-12T06:46:52;30.62;;;12.73;;
52272;SDS011;38227;50.942;4.016;2022-09-12T06:49:22;20.12;;;12.13;;
52272;SDS011;38227;50.942;4.016;2022-09-12T06:51:51;21.77;;;11.30;;
52272;SDS011;38227;50.942;4.016;2022-09-12T06:54:18;16.42;;;10.70;;
52272;SDS011;38227;50.942;4.016;2022-09-12T06:56:48;14.50;;;10.10;;
52272;SDS011;38227;50.942;4.016;2022-09-12T06:59:19;17.70;;;10.65;;
52272;SDS011;38227;50.942;4.016;2022-09-12T07:02:08;14.10;;;10.02;;
52272;SDS011;38227;50.942;4.016;2022-09-12T07:04:37;15.25;;;10.80;;
52272;SDS011;38227;50.942;4.016;2022-09-12T07:07:06;16.10;;;10.82;;
52272;SDS011;38227;50.942;4.016;2022-09-12T07:09:35;13.45;;;10.55;;
52272;SDS011;38227;50.942;4.016;2022-09-12T07:12:12;15.70;;;10.63;;
52272;SDS011;38227;50.942;4.016;2022-09-12T07:14:41;14.90;;;10.27;;
52272;SDS011;38227;50.942;4.016;2022-09-12T07:17:13;12.43;;;9.82;;
52272;SDS011;38227;50.942;4.016;2022-09-12T07:19:42;13.50;;;9.73;;
52272;SDS011;38227;50.942;4.016;2022-09-12T07:22:24;17.42;;;9.70;;
52272;SDS011;38227;50.942;4.016;2022-09-12T07:24:52;16.60;;;9.82;;
52272;SDS011;38227;50.942;4.016;2022-09-12T07:27:21;13.38;;;10.13;;
52272;SDS011;38227;50.942;4.016;2022-09-12T07:29:49;12.18;;;9.13;;
52272;SDS011;38227;50.942;4.016;2022-09-12T07:32:19;14.27;;;10.38;;
52272;SDS011;38227;50.942;4.016;2022-09-12T07:34:47;16.73;;;10.30;;
52272;SDS011;38227;50.942;4.016;2022-09-12T07:37:28;13.25;;;9.00;;
52272;SDS011;38227;50.942;4.016;2022-09-12T07:39:58;14.10;;;9.57;;
52272;SDS011;38227;50.942;4.016;2022-09-12T07:42:29;13.38;;;9.85;;
52272;SDS011;38227;50.942;4.016;2022-09-12T07:44:58;15.55;;;9.98;;
52272;SDS011;38227;50.942;4.016;2022-09-12T07:47:30;15.98;;;10.07;;
52272;SDS011;38227;50.942;4.016;2022-09-12T07:49:57;14.02;;;9.68;;
52272;SDS011;38227;50.942;4.016;2022-09-12T07:52:26;11.85;;;9.18;;
52272;SDS011;38227;50.942;4.016;2022-09-12T07:54:54;14.85;;;9.15;;
52272;SDS011;38227;50.942;4.016;2022-09-12T07:57:24;12.60;;;8.93;;
52272;SDS011;38227;50.942;4.016;2022-09-12T07:59:56;14.93;;;9.23;;
52272;SDS011;38227;50.942;4.016;2022-09-12T08:02:35;13.25;;;8.65;;
52272;SDS011;38227;50.942;4.016;2022-09-12T08:05:03;14.90;;;9.18;;
52272;SDS011;38227;50.942;4.016;2022-09-12T08:07:33;12.75;;;8.80;;
52272;SDS011;38227;50.942;4.016;2022-09-12T08:10:02;13.35;;;8.65;;
52272;SDS011;38227;50.942;4.016;2022-09-12T08:12:34;12.52;;;8.40;;
52272;SDS011;38227;50.942;4.016;2022-09-12T08:15:03;11.93;;;8.40;;
52272;SDS011;38227;50.942;4.016;2022-09-12T08:17:35;12.88;;;8.65;;
52272;SDS011;38227;50.942;4.016;2022-09-12T08:20:05;12.93;;;8.30;;
52272;SDS011;38227;50.942;4.016;2022-09-12T08:22:36;12.57;;;8.32;;
52272;SDS011;38227;50.942;4.016;2022-09-12T08:25:05;12.93;;;8.38;;
52272;SDS011;38227;50.942;4.016;2022-09-12T08:27:36;10.90;;;7.78;;
52272;SDS011;38227;50.942;4.016;2022-09-12T08:30:07;12.50;;;7.85;;
52272;SDS011;38227;50.942;4.016;2022-09-12T08:32:39;12.55;;;7.50;;
52272;SDS011;38227;50.942;4.016;2022-09-12T08:35:09;12.48;;;7.47;;
52272;SDS011;38227;50.942;4.016;2022-09-12T08:37:42;14.30;;;7.60;;
52272;SDS011;38227;50.942;4.016;2022-09-12T08:40:20;13.70;;;7.32;;
52272;SDS011;38227;50.942;4.016;2022-09-12T08:46:35;14.95;;;6.47;;
52272;SDS011;38227;50.942;4.016;2022-09-12T08:49:26;13.88;;;6.37;;
52272;SDS011;38227;50.942;4.016;2022-09-12T08:52:28;10.35;;;6.85;;
52272;SDS011;38227;50.942;4.016;2022-09-12T08:55:02;9.13;;;6.50;;
52272;SDS011;38227;50.942;4.016;2022-09-12T08:57:33;6.87;;;5.68;;
52272;SDS011;38227;50.942;4.016;2022-09-12T09:00:03;7.53;;;5.65;;
52272;SDS011;38227;50.942;4.016;2022-09-12T09:02:39;9.45;;;5.30;;
52272;SDS011;38227;50.942;4.016;2022-09-12T09:05:24;8.68;;;5.35;;
52272;SDS011;38227;50.942;4.016;2022-09-12T09:08:27;12.45;;;5.82;;
52272;SDS011;38227;50.942;4.016;2022-09-12T09:11:29;9.30;;;5.15;;
52272;SDS011;38227;50.942;4.016;2022-09-12T09:21:28;9.25;;;4.22;;
52272;SDS011;38227;50.942;4.016;2022-09-12T09:24:04;10.07;;;4.00;;
52272;SDS011;38227;50.942;4.016;2022-09-12T09:29:49;5.53;;;3.70;;
52272;SDS011;38227;50.942;4.016;2022-09-12T09:32:26;5.80;;;3.42;;
52272;SDS011;38227;50.942;4.016;2022-09-12T09:35:09;7.20;;;3.20;;
52272;SDS011;38227;50.942;4.016;2022-09-12T09:38:00;2.80;;;2.53;;
52272;SDS011;38227;50.942;4.016;2022-09-12T09:40:56;4.65;;;2.78;;
52272;SDS011;38227;50.942;4.016;2022-09-12T09:43:49;7.75;;;3.35;;
52272;SDS011;38227;50.942;4.016;2022-09-12T09:46:19;5.70;;;3.67;;
52272;SDS011;38227;50.942;4.016;2022-09-12T09:48:57;6.82;;;3.72;;
52272;SDS011;38227;50.942;4.016;2022-09-12T09:51:37;4.70;;;3.15;;
52272;SDS011;38227;50.942;4.016;2022-09-12T09:54:19;6.18;;;3.62;;
52272;SDS011;38227;50.942;4.016;2022-09-12T09:56:54;6.80;;;3.70;;
52272;SDS011;38227;50.942;4.016;2022-09-12T09:59:29;10.98;;;3.47;;
52272;SDS011;38227;50.942;4.016;2022-09-12T10:02:00;4.72;;;3.03;;
52272;SDS011;38227;50.942;4.016;2022-09-12T10:04:55;4.85;;;3.40;;
52272;SDS011;38227;50.942;4.016;2022-09-12T10:07:25;6.93;;;2.92;;
52272;SDS011;38227;50.942;4.016;2022-09-12T10:13:22;4.07;;;2.50;;
52272;SDS011;38227;50.942;4.016;2022-09-12T10:16:32;4.90;;;2.37;;
52272;SDS011;38227;50.942;4.016;2022-09-12T10:27:14;5.55;;;2.45;;
52272;SDS011;38227;50.942;4.016;2022-09-12T10:29:49;6.18;;;3.05;;
52272;SDS011;38227;50.942;4.016;2022-09-12T10:32:52;3.83;;;2.40;;
52272;SDS011;38227;50.942;4.016;2022-09-12T10:35:24;5.55;;;2.65;;
52272;SDS011;38227;50.942;4.016;2022-09-12T10:38:05;5.40;;;2.58;;
52272;SDS011;38227;50.942;4.016;2022-09-12T10:40:37;5.00;;;2.90;;
52272;SDS011;38227;50.942;4.016;2022-09-12T10:43:16;4.50;;;2.53;;
52272;SDS011;38227;50.942;4.016;2022-09-12T10:45:56;6.50;;;2.67;;
52272;SDS011;38227;50.942;4.016;2022-09-12T10:48:30;9.07;;;2.85;;
52272;SDS011;38227;50.942;4.016;2022-09-12T10:51:11;6.72;;;2.58;;
52272;SDS011;38227;50.942;4.016;2022-09-12T10:54:09;5.50;;;2.62;;
52272;SDS011;38227;50.942;4.016;2022-09-12T10:56:51;4.93;;;2.03;;
52272;SDS011;38227;50.942;4.016;2022-09-12T11:05:57;5.97;;;2.05;;
52272;SDS011;38227;50.942;4.016;2022-09-12T11:11:44;4.05;;;2.20;;
52272;SDS011;38227;50.942;4.016;2022-09-12T11:17:36;5.45;;;2.65;;
52272;SDS011;38227;50.942;4.016;2022-09-12T11:23:55;6.53;;;2.20;;
52272;SDS011;38227;50.942;4.016;2022-09-12T11:33:50;5.22;;;2.15;;
52272;SDS011;38227;50.942;4.016;2022-09-12T11:39:38;5.22;;;2.72;;
52272;SDS011;38227;50.942;4.016;2022-09-12T11:42:15;15.32;;;2.40;;
52272;SDS011;38227;50.942;4.016;2022-09-12T11:44:55;5.53;;;2.40;;
52272;SDS011;38227;50.942;4.016;2022-09-12T11:48:03;3.70;;;2.35;;
52272;SDS011;38227;50.942;4.016;2022-09-12T11:50:37;5.28;;;2.50;;
52272;SDS011;38227;50.942;4.016;2022-09-12T11:53:28;5.60;;;2.60;;
52272;SDS011;38227;50.942;4.016;2022-09-12T11:56:18;3.58;;;2.58;;
52272;SDS011;38227;50.942;4.016;2022-09-12T11:58:49;4.57;;;2.95;;
52272;SDS011;38227;50.942;4.016;2022-09-12T12:01:31;6.20;;;2.50;;
52272;SDS011;38227;50.942;4.016;2022-09-12T12:04:15;5.45;;;2.40;;
52272;SDS011;38227;50.942;4.016;2022-09-12T12:06:52;3.70;;;2.12;;
52272;SDS011;38227;50.942;4.016;2022-09-12T12:09:30;5.40;;;1.80;;
52272;SDS011;38227;50.942;4.016;2022-09-12T12:12:21;5.95;;;1.70;;
52272;SDS011;38227;50.942;4.016;2022-09-12T12:14:54;3.22;;;1.80;;
52272;SDS011;38227;50.942;4.016;2022-09-12T12:17:24;2.85;;;1.80;;
52272;SDS011;38227;50.942;4.016;2022-09-12T12:19:58;8.30;;;2.55;;
52272;SDS011;38227;50.942;4.016;2022-09-12T12:22:30;4.40;;;2.10;;
52272;SDS011;38227;50.942;4.016;2022-09-12T12:27:59;2.58;;;1.80;;
52272;SDS011;38227;50.942;4.016;2022-09-12T12:36:48;4.85;;;1.95;;
52272;SDS011;38227;50.942;4.016;2022-09-12T12:45:58;2.92;;;1.50;;
52272;SDS011;38227;50.942;4.016;2022-09-12T12:48:32;2.55;;;1.70;;
52272;SDS011;38227;50.942;4.016;2022-09-12T13:03:16;8.30;;;1.95;;
52272;SDS011;38227;50.942;4.016;2022-09-12T13:05:57;3.80;;;1.75;;
52272;SDS011;38227;50.942;4.016;2022-09-12T13:08:31;3.83;;;1.90;;
52272;SDS011;38227;50.942;4.016;2022-09-12T13:11:26;7.80;;;1.80;;
52272;SDS011;38227;50.942;4.016;2022-09-12T13:14:35;4.47;;;2.00;;
52272;SDS011;38227;50.942;4.016;2022-09-12T13:17:40;5.80;;;1.87;;
52272;SDS011;38227;50.942;4.016;2022-09-12T13:23:02;3.95;;;1.83;;
52272;SDS011;38227;50.942;4.016;2022-09-12T13:25:31;2.58;;;1.90;;
52272;SDS011;38227;50.942;4.016;2022-09-12T13:33:52;2.35;;;1.67;;
52272;SDS011;38227;50.942;4.016;2022-09-12T13:39:48;4.72;;;1.77;;
52272;SDS011;38227;50.942;4.016;2022-09-12T13:42:43;3.42;;;1.80;;
52272;SDS011;38227;50.942;4.016;2022-09-12T13:45:32;4.78;;;1.67;;
52272;SDS011;38227;50.942;4.016;2022-09-12T13:48:04;6.87;;;1.83;;
52272;SDS011;38227;50.942;4.016;2022-09-12T13:50:40;3.37;;;1.70;;
52272;SDS011;38227;50.942;4.016;2022-09-12T13:53:19;3.70;;;1.70;;
52272;SDS011;38227;50.942;4.016;2022-09-12T13:55:54;4.97;;;2.05;;
52272;SDS011;38227;50.942;4.016;2022-09-12T13:58:29;3.22;;;1.67;;
52272;SDS011;38227;50.942;4.016;2022-09-12T14:04:22;3.83;;;1.65;;
52272;SDS011;38227;50.942;4.016;2022-09-12T14:07:11;3.30;;;1.60;;
52272;SDS011;38227;50.942;4.016;2022-09-12T14:09:51;3.55;;;1.75;;
52272;SDS011;38227;50.942;4.016;2022-09-12T14:12:30;7.28;;;1.90;;
52272;SDS011;38227;50.942;4.016;2022-09-12T14:15:04;2.45;;;1.60;;
52272;SDS011;38227;50.942;4.016;2022-09-12T14:17:37;3.40;;;2.00;;
52272;SDS011;38227;50.942;4.016;2022-09-12T14:20:10;3.35;;;1.67;;
52272;SDS011;38227;50.942;4.016;2022-09-12T14:22:42;4.62;;;1.67;;
52272;SDS011;38227;50.942;4.016;2022-09-12T14:25:15;3.35;;;1.55;;
52272;SDS011;38227;50.942;4.016;2022-09-12T14:27:47;2.08;;;1.50;;
52272;SDS011;38227;50.942;4.016;2022-09-12T14:30:24;3.20;;;1.50;;
52272;SDS011;38227;50.942;4.016;2022-09-12T14:42:17;5.18;;;1.50;;
52272;SDS011;38227;50.942;4.016;2022-09-12T14:45:00;2.83;;;1.30;;
52272;SDS011;38227;50.942;4.016;2022-09-12T14:47:41;2.40;;;1.20;;
52272;SDS011;38227;50.942;4.016;2022-09-12T14:50:17;3.80;;;1.67;;
52272;SDS011;38227;50.942;4.016;2022-09-12T14:53:06;1.00;;;0.90;;
52272;SDS011;38227;50.942;4.016;2022-09-12T14:56:10;3.55;;;1.40;;
52272;SDS011;38227;50.942;4.016;2022-09-12T14:58:41;4.20;;;2.08;;
52272;SDS011;38227;50.942;4.016;2022-09-12T15:03:58;2.30;;;1.40;;
52272;SDS011;38227;50.942;4.016;2022-09-12T15:06:31;11.02;;;1.60;;
52272;SDS011;38227;50.942;4.016;2022-09-12T15:09:02;1.75;;;1.23;;
52272;SDS011;38227;50.942;4.016;2022-09-12T15:11:35;4.30;;;1.50;;
52272;SDS011;38227;50.942;4.016;2022-09-12T15:14:12;5.87;;;1.40;;
52272;SDS011;38227;50.942;4.016;2022-09-12T15:16:42;3.42;;;1.40;;
52272;SDS011;38227;50.942;4.016;2022-09-12T15:19:18;2.42;;;1.40;;
52272;SDS011;38227;50.942;4.016;2022-09-12T15:21:47;4.25;;;1.35;;
52272;SDS011;38227;50.942;4.016;2022-09-12T15:24:17;3.47;;;1.10;;
52272;SDS011;38227;50.942;4.016;2022-09-12T15:26:49;3.90;;;1.40;;
52272;SDS011;38227;50.942;4.016;2022-09-12T15:29:19;6.60;;;1.62;;
52272;SDS011;38227;50.942;4.016;2022-09-12T15:31:51;3.70;;;1.20;;
52272;SDS011;38227;50.942;4.016;2022-09-12T15:34:19;2.50;;;1.45;;
52272;SDS011;38227;50.942;4.016;2022-09-12T15:36:48;4.12;;;1.40;;
52272;SDS011;38227;50.942;4.016;2022-09-12T15:39:15;2.80;;;1.40;;
52272;SDS011;38227;50.942;4.016;2022-09-12T15:41:46;1.87;;;1.20;;
52272;SDS011;38227;50.942;4.016;2022-09-12T15:44:13;3.92;;;1.40;;
52272;SDS011;38227;50.942;4.016;2022-09-12T15:46:44;2.80;;;1.20;;
52272;SDS011;38227;50.942;4.016;2022-09-12T15:49:12;6.53;;;1.95;;
52272;SDS011;38227;50.942;4.016;2022-09-12T15:51:42;2.42;;;1.33;;
52272;SDS011;38227;50.942;4.016;2022-09-12T15:54:13;3.35;;;1.52;;
52272;SDS011;38227;50.942;4.016;2022-09-12T15:56:43;2.50;;;1.50;;
52272;SDS011;38227;50.942;4.016;2022-09-12T15:59:16;4.62;;;1.40;;
52272;SDS011;38227;50.942;4.016;2022-09-12T16:01:47;2.62;;;1.30;;
52272;SDS011;38227;50.942;4.016;2022-09-12T16:04:21;6.32;;;1.60;;
52272;SDS011;38227;50.942;4.016;2022-09-12T16:06:53;1.85;;;1.27;;
52272;SDS011;38227;50.942;4.016;2022-09-12T16:09:23;2.55;;;1.30;;
52272;SDS011;38227;50.942;4.016;2022-09-12T16:11:56;3.12;;;1.45;;
52272;SDS011;38227;50.942;4.016;2022-09-12T16:14:34;3.40;;;1.33;;
52272;SDS011;38227;50.942;4.016;2022-09-12T16:17:11;3.05;;;1.40;;
52272;SDS011;38227;50.942;4.016;2022-09-12T16:19:39;3.20;;;1.35;;
52272;SDS011;38227;50.942;4.016;2022-09-12T16:22:08;3.25;;;1.37;;
52272;SDS011;38227;50.942;4.016;2022-09-12T16:24:38;3.37;;;1.25;;
52272;SDS011;38227;50.942;4.016;2022-09-12T16:27:07;1.87;;;1.20;;
52272;SDS011;38227;50.942;4.016;2022-09-12T16:29:36;2.00;;;1.10;;
52272;SDS011;38227;50.942;4.016;2022-09-12T16:32:07;2.22;;;1.30;;
52272;SDS011;38227;50.942;4.016;2022-09-12T16:34:36;3.67;;;1.35;;
52272;SDS011;38227;50.942;4.016;2022-09-12T16:37:06;3.03;;;1.15;;
52272;SDS011;38227;50.942;4.016;2022-09-12T16:39:36;3.78;;;1.10;;
52272;SDS011;38227;50.942;4.016;2022-09-12T16:42:04;2.47;;;1.20;;
52272;SDS011;38227;50.942;4.016;2022-09-12T16:44:35;2.85;;;1.02;;
52272;SDS011;38227;50.942;4.016;2022-09-12T16:47:09;4.70;;;1.20;;
52272;SDS011;38227;50.942;4.016;2022-09-12T16:49:46;1.90;;;1.05;;
52272;SDS011;38227;50.942;4.016;2022-09-12T16:52:15;4.57;;;1.20;;
52272;SDS011;38227;50.942;4.016;2022-09-12T16:54:43;3.12;;;1.15;;
52272;SDS011;38227;50.942;4.016;2022-09-12T16:57:18;1.50;;;1.10;;
52272;SDS011;38227;50.942;4.016;2022-09-12T16:59:48;2.62;;;1.45;;
52272;SDS011;38227;50.942;4.016;2022-09-12T17:02:21;2.42;;;1.10;;
52272;SDS011;38227;50.942;4.016;2022-09-12T17:04:52;2.65;;;1.30;;
52272;SDS011;38227;50.942;4.016;2022-09-12T17:07:21;5.10;;;1.50;;
52272;SDS011;38227;50.942;4.016;2022-09-12T17:09:50;2.30;;;1.30;;
52272;SDS011;38227;50.942;4.016;2022-09-12T17:12:22;2.60;;;1.30;;
52272;SDS011;38227;50.942;4.016;2022-09-12T17:14:51;2.70;;;1.20;;
52272;SDS011;38227;50.942;4.016;2022-09-12T17:17:22;4.80;;;1.23;;
52272;SDS011;38227;50.942;4.016;2022-09-12T17:19:50;3.30;;;1.20;;
52272;SDS011;38227;50.942;4.016;2022-09-12T17:22:18;5.30;;;1.17;;
52272;SDS011;38227;50.942;4.016;2022-09-12T17:24:48;3.67;;;1.30;;
52272;SDS011;38227;50.942;4.016;2022-09-12T17:27:19;2.65;;;1.15;;
52272;SDS011;38227;50.942;4.016;2022-09-12T17:29:49;7.82;;;1.50;;
52272;SDS011;38227;50.942;4.016;2022-09-12T17:32:28;6.30;;;1.40;;
52272;SDS011;38227;50.942;4.016;2022-09-12T17:35:00;6.87;;;1.40;;
52272;SDS011;38227;50.942;4.016;2022-09-12T17:37:37;2.83;;;1.30;;
52272;SDS011;38227;50.942;4.016;2022-09-12T17:40:05;5.57;;;1.40;;
52272;SDS011;38227;50.942;4.016;2022-09-12T17:42:37;6.75;;;1.50;;
52272;SDS011;38227;50.942;4.016;2022-09-12T17:45:05;8.20;;;1.45;;
52272;SDS011;38227;50.942;4.016;2022-09-12T17:47:36;9.07;;;1.40;;
52272;SDS011;38227;50.942;4.016;2022-09-12T17:50:05;4.72;;;1.35;;
52272;SDS011;38227;50.942;4.016;2022-09-12T17:52:36;10.23;;;1.45;;
52272;SDS011;38227;50.942;4.016;2022-09-12T17:55:08;6.45;;;1.55;;